sensor_id;sensor_type;location;lat;lon;timestamp;P1;durP1;ratioP1;P2;durP2;ratioP2
24751;SDS011;27246;52.376;4.628;2023-02-13T00:04:20;32.15;;;23.00;;
24751;SDS011;27246;52.376;4.628;2023-02-13T00:09:22;30.80;;;22.25;;
24751;SDS011;27246;52.376;4.628;2023-02-13T00:14:24;31.85;;;22.20;;
24751;SDS011;27246;52.376;4.628;2023-02-13T00:19:25;28.88;;;20.83;;
24751;SDS011;27246;52.376;4.628;2023-02-13T00:24:27;29.25;;;20.65;;
24751;SDS011;27246;52.376;4.628;2023-02-13T00:29:29;29.67;;;19.95;;
24751;SDS011;27246;52.376;4.628;2023-02-13T00:34:30;31.23;;;21.20;;
24751;SDS011;27246;52.376;4.628;2023-02-13T00:39:32;30.85;;;21.92;;
24751;SDS011;27246;52.376;4.628;2023-02-13T00:44:34;31.45;;;21.77;;
24751;SDS011;27246;52.376;4.628;2023-02-13T00:49:35;29.98;;;21.88;;
24751;SDS011;27246;52.376;4.628;2023-02-13T00:54:37;32.75;;;22.23;;
24751;SDS011;27246;52.376;4.628;2023-02-13T00:59:39;31.83;;;22.75;;
24751;SDS011;27246;52.376;4.628;2023-02-13T01:04:41;32.33;;;21.73;;
24751;SDS011;27246;52.376;4.628;2023-02-13T01:09:42;34.50;;;25.00;;
24751;SDS011;27246;52.376;4.628;2023-02-13T01:14:45;32.28;;;22.27;;
24751;SDS011;27246;52.376;4.628;2023-02-13T01:19:46;32.58;;;22.52;;
24751;SDS011;27246;52.376;4.628;2023-02-13T01:24:48;35.10;;;22.95;;
24751;SDS011;27246;52.376;4.628;2023-02-13T01:29:50;36.90;;;26.02;;
24751;SDS011;27246;52.376;4.628;2023-02-13T01:34:52;34.20;;;24.50;;
24751;SDS011;27246;52.376;4.628;2023-02-13T01:39:53;33.55;;;25.05;;
24751;SDS011;27246;52.376;4.628;2023-02-13T01:44:57;35.45;;;24.17;;
24751;SDS011;27246;52.376;4.628;2023-02-13T01:50:02;36.17;;;24.88;;
24751;SDS011;27246;52.376;4.628;2023-02-13T01:55:08;34.33;;;25.15;;
24751;SDS011;27246;52.376;4.628;2023-02-13T02:00:11;35.00;;;25.02;;
24751;SDS011;27246;52.376;4.628;2023-02-13T02:05:18;37.25;;;25.65;;
24751;SDS011;27246;52.376;4.628;2023-02-13T02:10:22;39.17;;;26.15;;
24751;SDS011;27246;52.376;4.628;2023-02-13T02:15:24;36.17;;;25.15;;
24751;SDS011;27246;52.376;4.628;2023-02-13T02:31:36;36.00;;;25.05;;
24751;SDS011;27246;52.376;4.628;2023-02-13T02:47:32;36.15;;;25.73;;
24751;SDS011;27246;52.376;4.628;2023-02-13T02:58:14;36.80;;;24.80;;
24751;SDS011;27246;52.376;4.628;2023-02-13T03:03:40;38.70;;;25.95;;
24751;SDS011;27246;52.376;4.628;2023-02-13T03:09:01;37.55;;;25.67;;
24751;SDS011;27246;52.376;4.628;2023-02-13T03:14:26;39.97;;;26.98;;
24751;SDS011;27246;52.376;4.628;2023-02-13T03:25:20;42.03;;;27.67;;
24751;SDS011;27246;52.376;4.628;2023-02-13T03:30:45;42.40;;;27.75;;
24751;SDS011;27246;52.376;4.628;2023-02-13T03:36:13;39.92;;;26.45;;
24751;SDS011;27246;52.376;4.628;2023-02-13T03:41:41;36.38;;;25.65;;
24751;SDS011;27246;52.376;4.628;2023-02-13T03:46:50;34.00;;;24.77;;
24751;SDS011;27246;52.376;4.628;2023-02-13T03:57:14;38.97;;;27.80;;
24751;SDS011;27246;52.376;4.628;2023-02-13T04:02:46;40.85;;;26.52;;
24751;SDS011;27246;52.376;4.628;2023-02-13T04:07:54;37.35;;;25.70;;
24751;SDS011;27246;52.376;4.628;2023-02-13T04:23:06;38.15;;;25.98;;
24751;SDS011;27246;52.376;4.628;2023-02-13T04:28:10;41.25;;;27.00;;
24751;SDS011;27246;52.376;4.628;2023-02-13T04:33:12;41.28;;;27.77;;
24751;SDS011;27246;52.376;4.628;2023-02-13T04:38:13;36.95;;;25.95;;
24751;SDS011;27246;52.376;4.628;2023-02-13T04:43:15;39.25;;;27.40;;
24751;SDS011;27246;52.376;4.628;2023-02-13T04:48:17;41.13;;;26.55;;
24751;SDS011;27246;52.376;4.628;2023-02-13T04:53:18;41.05;;;28.33;;
24751;SDS011;27246;52.376;4.628;2023-02-13T04:58:20;40.65;;;27.48;;
24751;SDS011;27246;52.376;4.628;2023-02-13T05:03:22;42.47;;;28.75;;
24751;SDS011;27246;52.376;4.628;2023-02-13T05:08:24;40.05;;;26.88;;
24751;SDS011;27246;52.376;4.628;2023-02-13T05:13:25;45.03;;;29.30;;
24751;SDS011;27246;52.376;4.628;2023-02-13T05:18:28;40.13;;;27.65;;
24751;SDS011;27246;52.376;4.628;2023-02-13T05:23:29;43.90;;;27.88;;
24751;SDS011;27246;52.376;4.628;2023-02-13T05:28:31;54.53;;;38.80;;
24751;SDS011;27246;52.376;4.628;2023-02-13T05:33:51;41.85;;;27.98;;
24751;SDS011;27246;52.376;4.628;2023-02-13T05:38:53;43.65;;;27.85;;
24751;SDS011;27246;52.376;4.628;2023-02-13T05:43:54;41.42;;;28.17;;
24751;SDS011;27246;52.376;4.628;2023-02-13T05:48:56;39.88;;;26.38;;
24751;SDS011;27246;52.376;4.628;2023-02-13T05:53:58;43.88;;;28.20;;
24751;SDS011;27246;52.376;4.628;2023-02-13T05:58:59;43.20;;;27.83;;
24751;SDS011;27246;52.376;4.628;2023-02-13T06:04:01;39.47;;;27.25;;
24751;SDS011;27246;52.376;4.628;2023-02-13T06:09:04;40.15;;;27.25;;
24751;SDS011;27246;52.376;4.628;2023-02-13T06:14:06;42.72;;;27.70;;
24751;SDS011;27246;52.376;4.628;2023-02-13T06:19:07;41.10;;;28.63;;
24751;SDS011;27246;52.376;4.628;2023-02-13T06:24:09;39.97;;;26.58;;
24751;SDS011;27246;52.376;4.628;2023-02-13T06:29:11;42.15;;;26.35;;
24751;SDS011;27246;52.376;4.628;2023-02-13T06:34:13;41.90;;;28.25;;
24751;SDS011;27246;52.376;4.628;2023-02-13T06:39:14;40.33;;;26.45;;
24751;SDS011;27246;52.376;4.628;2023-02-13T06:44:16;44.97;;;27.02;;
24751;SDS011;27246;52.376;4.628;2023-02-13T06:49:18;38.55;;;25.33;;
24751;SDS011;27246;52.376;4.628;2023-02-13T06:54:19;42.28;;;25.60;;
24751;SDS011;27246;52.376;4.628;2023-02-13T06:59:26;42.92;;;26.13;;
24751;SDS011;27246;52.376;4.628;2023-02-13T07:04:28;38.53;;;25.23;;
24751;SDS011;27246;52.376;4.628;2023-02-13T07:09:30;37.38;;;24.23;;
24751;SDS011;27246;52.376;4.628;2023-02-13T07:14:32;36.42;;;25.45;;
24751;SDS011;27246;52.376;4.628;2023-02-13T07:19:33;38.65;;;25.00;;
24751;SDS011;27246;52.376;4.628;2023-02-13T07:24:35;41.20;;;25.73;;
24751;SDS011;27246;52.376;4.628;2023-02-13T07:29:39;42.30;;;26.08;;
24751;SDS011;27246;52.376;4.628;2023-02-13T07:34:41;41.70;;;25.95;;
24751;SDS011;27246;52.376;4.628;2023-02-13T07:40:01;40.60;;;25.88;;
24751;SDS011;27246;52.376;4.628;2023-02-13T07:45:06;37.72;;;24.65;;
24751;SDS011;27246;52.376;4.628;2023-02-13T07:50:09;38.63;;;24.42;;
24751;SDS011;27246;52.376;4.628;2023-02-13T07:55:11;36.35;;;25.05;;
24751;SDS011;27246;52.376;4.628;2023-02-13T08:00:13;40.53;;;24.33;;
24751;SDS011;27246;52.376;4.628;2023-02-13T08:05:15;42.35;;;24.80;;
24751;SDS011;27246;52.376;4.628;2023-02-13T08:10:17;39.83;;;26.52;;
24751;SDS011;27246;52.376;4.628;2023-02-13T08:15:38;51.30;;;27.67;;
24751;SDS011;27246;52.376;4.628;2023-02-13T08:20:40;42.63;;;24.13;;
24751;SDS011;27246;52.376;4.628;2023-02-13T08:25:41;37.45;;;24.00;;
24751;SDS011;27246;52.376;4.628;2023-02-13T08:30:43;32.65;;;22.95;;
24751;SDS011;27246;52.376;4.628;2023-02-13T08:35:45;37.70;;;25.27;;
24751;SDS011;27246;52.376;4.628;2023-02-13T08:40:46;36.65;;;23.10;;
24751;SDS011;27246;52.376;4.628;2023-02-13T08:45:48;34.95;;;24.00;;
24751;SDS011;27246;52.376;4.628;2023-02-13T08:50:50;36.40;;;24.75;;
24751;SDS011;27246;52.376;4.628;2023-02-13T08:55:53;38.13;;;25.63;;
24751;SDS011;27246;52.376;4.628;2023-02-13T09:00:56;45.20;;;26.40;;
24751;SDS011;27246;52.376;4.628;2023-02-13T09:05:59;38.78;;;26.10;;
24751;SDS011;27246;52.376;4.628;2023-02-13T09:11:03;36.88;;;25.50;;
24751;SDS011;27246;52.376;4.628;2023-02-13T09:16:09;38.08;;;25.75;;
24751;SDS011;27246;52.376;4.628;2023-02-13T09:21:11;37.22;;;25.13;;
24751;SDS011;27246;52.376;4.628;2023-02-13T09:26:14;34.70;;;24.30;;
24751;SDS011;27246;52.376;4.628;2023-02-13T09:31:17;35.67;;;24.30;;
24751;SDS011;27246;52.376;4.628;2023-02-13T09:36:21;36.10;;;24.35;;
24751;SDS011;27246;52.376;4.628;2023-02-13T09:41:25;35.45;;;24.15;;
24751;SDS011;27246;52.376;4.628;2023-02-13T09:46:33;34.20;;;24.00;;
24751;SDS011;27246;52.376;4.628;2023-02-13T09:51:37;34.97;;;24.05;;
24751;SDS011;27246;52.376;4.628;2023-02-13T09:56:43;30.33;;;23.00;;
24751;SDS011;27246;52.376;4.628;2023-02-13T10:01:55;30.75;;;22.17;;
24751;SDS011;27246;52.376;4.628;2023-02-13T10:17:49;28.85;;;20.08;;
24751;SDS011;27246;52.376;4.628;2023-02-13T10:23:19;30.77;;;21.95;;
24751;SDS011;27246;52.376;4.628;2023-02-13T10:28:33;34.55;;;23.23;;
24751;SDS011;27246;52.376;4.628;2023-02-13T10:33:43;31.92;;;24.20;;
24751;SDS011;27246;52.376;4.628;2023-02-13T10:39:00;35.25;;;25.77;;
24751;SDS011;27246;52.376;4.628;2023-02-13T11:00:07;32.25;;;23.55;;
24751;SDS011;27246;52.376;4.628;2023-02-13T11:05:17;33.08;;;23.40;;
24751;SDS011;27246;52.376;4.628;2023-02-13T11:10:23;34.30;;;25.13;;
24751;SDS011;27246;52.376;4.628;2023-02-13T11:15:27;35.72;;;25.50;;
24751;SDS011;27246;52.376;4.628;2023-02-13T11:20:35;38.92;;;24.70;;
24751;SDS011;27246;52.376;4.628;2023-02-13T11:25:52;33.95;;;23.42;;
24751;SDS011;27246;52.376;4.628;2023-02-13T11:36:16;38.15;;;27.10;;
24751;SDS011;27246;52.376;4.628;2023-02-13T11:41:36;33.42;;;24.73;;
24751;SDS011;27246;52.376;4.628;2023-02-13T11:46:50;33.07;;;24.77;;
24751;SDS011;27246;52.376;4.628;2023-02-13T11:51:58;35.47;;;24.77;;
24751;SDS011;27246;52.376;4.628;2023-02-13T11:57:08;35.53;;;23.75;;
24751;SDS011;27246;52.376;4.628;2023-02-13T12:12:29;35.60;;;24.17;;
24751;SDS011;27246;52.376;4.628;2023-02-13T12:17:37;36.83;;;25.08;;
24751;SDS011;27246;52.376;4.628;2023-02-13T12:38:36;28.95;;;20.65;;
24751;SDS011;27246;52.376;4.628;2023-02-13T12:55:11;28.70;;;20.05;;
24751;SDS011;27246;52.376;4.628;2023-02-13T13:00:20;28.42;;;18.33;;
24751;SDS011;27246;52.376;4.628;2023-02-13T13:05:36;27.05;;;19.40;;
24751;SDS011;27246;52.376;4.628;2023-02-13T13:10:55;26.35;;;19.15;;
24751;SDS011;27246;52.376;4.628;2023-02-13T13:31:54;26.08;;;18.58;;
24751;SDS011;27246;52.376;4.628;2023-02-13T13:37:21;24.75;;;17.80;;
24751;SDS011;27246;52.376;4.628;2023-02-13T13:42:37;26.23;;;19.52;;
24751;SDS011;27246;52.376;4.628;2023-02-13T13:53:04;25.80;;;19.02;;
24751;SDS011;27246;52.376;4.628;2023-02-13T14:03:40;25.67;;;18.60;;
24751;SDS011;27246;52.376;4.628;2023-02-13T14:13:46;25.77;;;19.38;;
24751;SDS011;27246;52.376;4.628;2023-02-13T14:18:47;24.77;;;18.13;;
24751;SDS011;27246;52.376;4.628;2023-02-13T14:23:51;27.38;;;19.33;;
24751;SDS011;27246;52.376;4.628;2023-02-13T14:28:58;28.73;;;20.00;;
24751;SDS011;27246;52.376;4.628;2023-02-13T14:34:18;25.25;;;19.00;;
24751;SDS011;27246;52.376;4.628;2023-02-13T14:39:28;23.98;;;19.65;;
24751;SDS011;27246;52.376;4.628;2023-02-13T14:44:32;26.15;;;19.38;;
24751;SDS011;27246;52.376;4.628;2023-02-13T14:49:47;25.65;;;19.08;;
24751;SDS011;27246;52.376;4.628;2023-02-13T14:54:52;24.05;;;18.42;;
24751;SDS011;27246;52.376;4.628;2023-02-13T14:59:58;24.58;;;18.42;;
24751;SDS011;27246;52.376;4.628;2023-02-13T15:05:11;23.33;;;18.05;;
24751;SDS011;27246;52.376;4.628;2023-02-13T15:10:32;22.80;;;17.27;;
24751;SDS011;27246;52.376;4.628;2023-02-13T15:15:41;21.40;;;15.80;;
24751;SDS011;27246;52.376;4.628;2023-02-13T15:20:43;22.42;;;16.27;;
24751;SDS011;27246;52.376;4.628;2023-02-13T15:25:45;23.00;;;16.77;;
24751;SDS011;27246;52.376;4.628;2023-02-13T15:31:00;21.27;;;16.00;;
24751;SDS011;27246;52.376;4.628;2023-02-13T15:36:12;25.40;;;16.77;;
24751;SDS011;27246;52.376;4.628;2023-02-13T15:41:19;22.48;;;16.60;;
24751;SDS011;27246;52.376;4.628;2023-02-13T15:46:28;22.48;;;16.77;;
24751;SDS011;27246;52.376;4.628;2023-02-13T15:51:33;23.47;;;16.87;;
24751;SDS011;27246;52.376;4.628;2023-02-13T15:56:35;23.08;;;17.05;;
24751;SDS011;27246;52.376;4.628;2023-02-13T16:01:39;26.13;;;18.33;;
24751;SDS011;27246;52.376;4.628;2023-02-13T16:06:44;26.70;;;17.48;;
24751;SDS011;27246;52.376;4.628;2023-02-13T16:11:47;27.90;;;19.55;;
24751;SDS011;27246;52.376;4.628;2023-02-13T16:21:58;29.55;;;18.98;;
24751;SDS011;27246;52.376;4.628;2023-02-13T16:27:09;27.27;;;20.88;;
24751;SDS011;27246;52.376;4.628;2023-02-13T16:32:17;27.73;;;19.65;;
24751;SDS011;27246;52.376;4.628;2023-02-13T16:37:30;31.00;;;21.75;;
24751;SDS011;27246;52.376;4.628;2023-02-13T16:42:33;36.58;;;25.33;;
24751;SDS011;27246;52.376;4.628;2023-02-13T16:47:35;31.70;;;21.80;;
24751;SDS011;27246;52.376;4.628;2023-02-13T16:52:37;30.10;;;21.25;;
24751;SDS011;27246;52.376;4.628;2023-02-13T16:57:38;34.25;;;22.67;;
24751;SDS011;27246;52.376;4.628;2023-02-13T17:02:42;31.13;;;23.73;;
24751;SDS011;27246;52.376;4.628;2023-02-13T17:07:44;36.33;;;24.77;;
24751;SDS011;27246;52.376;4.628;2023-02-13T17:12:49;41.15;;;25.27;;
24751;SDS011;27246;52.376;4.628;2023-02-13T17:17:52;32.95;;;24.25;;
24751;SDS011;27246;52.376;4.628;2023-02-13T17:22:56;29.85;;;21.85;;
24751;SDS011;27246;52.376;4.628;2023-02-13T17:33:17;27.25;;;20.08;;
24751;SDS011;27246;52.376;4.628;2023-02-13T17:38:22;28.60;;;19.85;;
24751;SDS011;27246;52.376;4.628;2023-02-13T17:43:24;27.27;;;20.13;;
24751;SDS011;27246;52.376;4.628;2023-02-13T17:48:28;31.65;;;22.40;;
24751;SDS011;27246;52.376;4.628;2023-02-13T17:53:30;28.55;;;21.15;;
24751;SDS011;27246;52.376;4.628;2023-02-13T17:58:32;31.33;;;21.35;;
24751;SDS011;27246;52.376;4.628;2023-02-13T18:03:34;31.00;;;21.50;;
24751;SDS011;27246;52.376;4.628;2023-02-13T18:08:35;30.75;;;23.30;;
24751;SDS011;27246;52.376;4.628;2023-02-13T18:13:37;31.38;;;22.10;;
24751;SDS011;27246;52.376;4.628;2023-02-13T18:18:41;34.22;;;24.65;;
24751;SDS011;27246;52.376;4.628;2023-02-13T18:23:42;35.55;;;24.42;;
24751;SDS011;27246;52.376;4.628;2023-02-13T18:28:44;32.42;;;23.10;;
24751;SDS011;27246;52.376;4.628;2023-02-13T18:33:46;33.97;;;24.20;;
24751;SDS011;27246;52.376;4.628;2023-02-13T18:38:49;35.38;;;25.92;;
24751;SDS011;27246;52.376;4.628;2023-02-13T18:43:51;32.45;;;24.30;;
24751;SDS011;27246;52.376;4.628;2023-02-13T18:48:53;33.63;;;23.40;;
24751;SDS011;27246;52.376;4.628;2023-02-13T18:53:54;34.75;;;24.20;;
24751;SDS011;27246;52.376;4.628;2023-02-13T18:58:56;32.63;;;23.85;;
24751;SDS011;27246;52.376;4.628;2023-02-13T19:03:58;35.65;;;25.83;;
24751;SDS011;27246;52.376;4.628;2023-02-13T19:09:01;41.38;;;27.75;;
24751;SDS011;27246;52.376;4.628;2023-02-13T19:14:03;34.80;;;25.92;;
24751;SDS011;27246;52.376;4.628;2023-02-13T19:19:06;34.65;;;25.10;;
24751;SDS011;27246;52.376;4.628;2023-02-13T19:24:09;37.58;;;27.52;;
24751;SDS011;27246;52.376;4.628;2023-02-13T19:29:12;42.75;;;28.25;;
24751;SDS011;27246;52.376;4.628;2023-02-13T19:34:13;30.27;;;23.20;;
24751;SDS011;27246;52.376;4.628;2023-02-13T19:39:15;36.47;;;25.20;;
24751;SDS011;27246;52.376;4.628;2023-02-13T19:44:18;33.83;;;25.40;;
24751;SDS011;27246;52.376;4.628;2023-02-13T19:49:20;39.47;;;29.27;;
24751;SDS011;27246;52.376;4.628;2023-02-13T19:54:22;33.55;;;25.45;;
24751;SDS011;27246;52.376;4.628;2023-02-13T19:59:25;37.20;;;27.33;;
24751;SDS011;27246;52.376;4.628;2023-02-13T20:04:27;37.78;;;27.50;;
24751;SDS011;27246;52.376;4.628;2023-02-13T20:09:29;37.38;;;27.50;;
24751;SDS011;27246;52.376;4.628;2023-02-13T20:14:31;39.03;;;28.55;;
24751;SDS011;27246;52.376;4.628;2023-02-13T20:19:34;37.17;;;27.65;;
24751;SDS011;27246;52.376;4.628;2023-02-13T20:24:36;35.42;;;26.33;;
24751;SDS011;27246;52.376;4.628;2023-02-13T20:29:38;36.78;;;25.73;;
24751;SDS011;27246;52.376;4.628;2023-02-13T20:34:40;36.88;;;24.67;;
24751;SDS011;27246;52.376;4.628;2023-02-13T20:40:00;39.30;;;25.73;;
24751;SDS011;27246;52.376;4.628;2023-02-13T20:45:02;32.83;;;24.40;;
24751;SDS011;27246;52.376;4.628;2023-02-13T20:50:04;32.72;;;25.70;;
24751;SDS011;27246;52.376;4.628;2023-02-13T20:55:07;40.22;;;29.63;;
24751;SDS011;27246;52.376;4.628;2023-02-13T21:00:09;36.63;;;26.85;;
24751;SDS011;27246;52.376;4.628;2023-02-13T21:05:13;35.42;;;26.90;;
24751;SDS011;27246;52.376;4.628;2023-02-13T21:10:15;36.88;;;27.88;;
24751;SDS011;27246;52.376;4.628;2023-02-13T21:15:17;40.60;;;29.70;;
24751;SDS011;27246;52.376;4.628;2023-02-13T21:20:19;34.30;;;26.48;;
24751;SDS011;27246;52.376;4.628;2023-02-13T21:25:21;43.58;;;30.13;;
24751;SDS011;27246;52.376;4.628;2023-02-13T21:30:23;44.28;;;31.35;;
24751;SDS011;27246;52.376;4.628;2023-02-13T21:35:25;35.65;;;27.35;;
24751;SDS011;27246;52.376;4.628;2023-02-13T21:40:26;36.50;;;27.90;;
24751;SDS011;27246;52.376;4.628;2023-02-13T21:45:28;38.70;;;27.58;;
24751;SDS011;27246;52.376;4.628;2023-02-13T21:50:30;40.47;;;28.60;;
24751;SDS011;27246;52.376;4.628;2023-02-13T21:55:31;41.22;;;29.65;;
24751;SDS011;27246;52.376;4.628;2023-02-13T22:00:33;36.30;;;26.60;;
24751;SDS011;27246;52.376;4.628;2023-02-13T22:05:35;35.75;;;26.40;;
24751;SDS011;27246;52.376;4.628;2023-02-13T22:10:37;36.97;;;25.33;;
24751;SDS011;27246;52.376;4.628;2023-02-13T22:15:39;39.70;;;28.05;;
24751;SDS011;27246;52.376;4.628;2023-02-13T22:20:41;35.60;;;25.98;;
24751;SDS011;27246;52.376;4.628;2023-02-13T22:25:49;37.50;;;26.63;;
24751;SDS011;27246;52.376;4.628;2023-02-13T22:30:51;46.63;;;32.13;;
24751;SDS011;27246;52.376;4.628;2023-02-13T22:35:53;46.60;;;29.98;;
24751;SDS011;27246;52.376;4.628;2023-02-13T22:40:55;40.47;;;28.42;;
24751;SDS011;27246;52.376;4.628;2023-02-13T22:46:01;37.50;;;27.23;;
24751;SDS011;27246;52.376;4.628;2023-02-13T22:51:05;37.00;;;26.77;;
24751;SDS011;27246;52.376;4.628;2023-02-13T22:56:10;36.00;;;27.58;;
24751;SDS011;27246;52.376;4.628;2023-02-13T23:01:14;39.13;;;28.70;;
24751;SDS011;27246;52.376;4.628;2023-02-13T23:06:18;35.17;;;26.02;;
24751;SDS011;27246;52.376;4.628;2023-02-13T23:11:21;34.58;;;26.67;;
24751;SDS011;27246;52.376;4.628;2023-02-13T23:16:45;37.50;;;28.63;;
24751;SDS011;27246;52.376;4.628;2023-02-13T23:22:05;42.45;;;30.98;;
24751;SDS011;27246;52.376;4.628;2023-02-13T23:27:06;39.10;;;30.23;;
24751;SDS011;27246;52.376;4.628;2023-02-13T23:32:08;39.63;;;27.98;;
24751;SDS011;27246;52.376;4.628;2023-02-13T23:37:10;34.35;;;28.10;;
24751;SDS011;27246;52.376;4.628;2023-02-13T23:42:12;36.30;;;26.95;;
24751;SDS011;27246;52.376;4.628;2023-02-13T23:47:13;34.33;;;27.30;;
24751;SDS011;27246;52.376;4.628;2023-02-13T23:52:15;38.35;;;28.60;;
24751;SDS011;27246;52.376;4.628;2023-02-13T23:57:17;35.33;;;26.55;;
